Time;durP1;ratioP1;P1;durP2;ratioP2;P2;SDS_P1;SDS_P2;PMS_P1;PMS_P2;Temp;Humidity;BMP_temperature;BMP_pressure;BME280_temperature;BME280_humidity;BME280_pressure;Samples;Min_cycle;Max_cycle;Signal;HPM_P1;HPM_P2
2022/08/12 02:41:19;;;;;;;6.10;3.13;;;;;;;;;;6132194;23;20217;-92
2022/08/12 02:44:26;;;;;;;7.40;3.38;;;;;;;;;;6126955;23;20173;-89
2022/08/12 02:47:33;;;;;;;8.20;3.13;;;;;;;;;;6121954;23;20196;-92
2022/08/12 02:50:41;;;;;;;8.27;3.67;;;;;;;;;;6122966;23;20169;-88
2022/08/12 02:53:47;;;;;;;8.80;3.30;;;;;;;;;;6122716;23;20228;-90
2022/08/12 02:56:55;;;;;;;8.75;3.28;;;;;;;;;;6123042;23;20170;-90
2022/08/12 03:00:05;;;;;;;5.53;3.60;;;;;;;;;;6122311;23;20173;-90
2022/08/12 03:03:11;;;;;;;6.38;3.03;;;;;;;;;;6121842;23;20169;-89
2022/08/12 03:06:18;;;;;;;6.70;3.58;;;;;;;;;;6122299;23;20200;-90
2022/08/12 03:09:24;;;;;;;5.55;3.08;;;;;;;;;;6122710;23;20234;-90
2022/08/12 03:12:31;;;;;;;5.43;3.15;;;;;;;;;;6122320;23;20609;-88
2022/08/12 03:15:37;;;;;;;6.50;3.55;;;;;;;;;;6122044;23;20242;-89
2022/08/12 03:18:43;;;;;;;6.90;3.50;;;;;;;;;;6125752;23;20198;-90
2022/08/12 03:21:50;;;;;;;8.07;3.40;;;;;;;;;;6122110;23;20651;-89
2022/08/12 03:24:57;;;;;;;11.07;3.90;;;;;;;;;;6121537;23;20264;-91
2022/08/12 03:28:04;;;;;;;5.90;3.40;;;;;;;;;;6122985;23;20205;-90
2022/08/12 03:31:10;;;;;;;8.10;3.42;;;;;;;;;;6120742;23;20173;-89
2022/08/12 03:34:28;;;;;;;7.03;3.10;;;;;;;;;;6122720;23;20173;-89
2022/08/12 03:37:34;;;;;;;8.43;2.88;;;;;;;;;;6125883;23;20217;-91
2022/08/12 04:05:06;;;;;;;6.07;3.00;;;;;;;;;;6120603;23;20173;-89
2022/08/12 04:08:13;;;;;;;6.40;2.85;;;;;;;;;;6120665;23;20201;-90
2022/08/12 04:14:41;;;;;;;4.75;3.25;;;;;;;;;;6120902;23;20184;-90
2022/08/12 04:17:47;;;;;;;6.80;3.15;;;;;;;;;;6121881;23;20248;-91
2022/08/12 04:20:53;;;;;;;6.40;3.25;;;;;;;;;;6121191;23;20632;-90
2022/08/12 04:23:58;;;;;;;9.18;3.85;;;;;;;;;;6120328;23;20615;-91
2022/08/12 04:27:05;;;;;;;7.38;3.47;;;;;;;;;;6119429;23;20217;-90
2022/08/12 04:30:11;;;;;;;9.38;3.30;;;;;;;;;;6120454;23;20149;-89
2022/08/12 04:33:24;;;;;;;6.55;3.35;;;;;;;;;;6128501;23;20176;-91
2022/08/12 04:36:31;;;;;;;7.13;3.20;;;;;;;;;;6131324;23;20169;-90
2022/08/12 04:39:38;;;;;;;8.18;3.97;;;;;;;;;;6130998;23;20173;-89
2022/08/12 04:42:46;;;;;;;8.02;3.28;;;;;;;;;;6130573;23;20177;-88
2022/08/12 04:45:53;;;;;;;5.93;3.35;;;;;;;;;;6131770;23;20174;-87
2022/08/12 04:49:01;;;;;;;9.35;3.50;;;;;;;;;;6131836;23;20172;-89
2022/08/12 04:52:09;;;;;;;6.93;3.67;;;;;;;;;;6131823;23;20165;-90
2022/08/12 04:55:21;;;;;;;6.57;3.22;;;;;;;;;;6131850;23;20181;-89
2022/08/12 04:58:28;;;;;;;5.93;3.45;;;;;;;;;;6130494;23;20173;-90
2022/08/12 05:01:36;;;;;;;7.80;3.55;;;;;;;;;;6131637;23;20177;-89
2022/08/12 05:04:46;;;;;;;8.48;3.22;;;;;;;;;;6131366;23;20189;-91
2022/08/12 05:07:56;;;;;;;9.43;3.08;;;;;;;;;;6130944;23;20201;-89
2022/08/12 05:11:04;;;;;;;9.40;3.05;;;;;;;;;;6130945;23;20218;-90
2022/08/12 05:14:13;;;;;;;5.65;3.13;;;;;;;;;;6114572;23;20224;-88
2022/08/12 05:17:19;;;;;;;10.77;3.53;;;;;;;;;;6130981;23;20225;-90
2022/08/12 05:20:25;;;;;;;6.82;3.22;;;;;;;;;;6131248;23;20153;-89
2022/08/12 05:23:33;;;;;;;9.20;3.50;;;;;;;;;;6130714;23;20230;-91
2022/08/12 05:26:52;;;;;;;7.32;3.55;;;;;;;;;;6131472;23;20153;-90
2022/08/12 05:29:58;;;;;;;7.97;4.88;;;;;;;;;;6131323;23;20158;-88
2022/08/12 05:33:08;;;;;;;14.05;3.42;;;;;;;;;;6131226;23;20197;-90
2022/08/12 05:36:16;;;;;;;8.15;3.25;;;;;;;;;;6130686;23;20173;-89
2022/08/12 05:39:23;;;;;;;8.98;3.35;;;;;;;;;;6123829;23;20169;-90
2022/08/12 05:42:30;;;;;;;7.85;3.10;;;;;;;;;;6123689;23;20202;-89
2022/08/12 05:45:36;;;;;;;8.77;3.40;;;;;;;;;;6121429;23;20177;-91
2022/08/12 05:48:42;;;;;;;6.28;2.88;;;;;;;;;;6123226;23;20205;-91
2022/08/12 05:51:47;;;;;;;7.35;3.17;;;;;;;;;;6126717;23;20193;-91
2022/08/12 05:54:54;;;;;;;5.88;2.95;;;;;;;;;;6119621;23;20173;-91
2022/08/12 05:58:00;;;;;;;7.20;3.10;;;;;;;;;;6121182;23;20169;-89
2022/08/12 06:01:06;;;;;;;6.45;2.88;;;;;;;;;;6122855;23;20172;-88
2022/08/12 06:04:13;;;;;;;5.18;2.67;;;;;;;;;;6120529;23;20173;-88
2022/08/12 06:07:18;;;;;;;6.68;2.70;;;;;;;;;;6120235;23;20196;-88
2022/08/12 06:10:25;;;;;;;9.98;2.40;;;;;;;;;;6122086;23;20177;-89
2022/08/12 06:13:30;;;;;;;6.45;2.83;;;;;;;;;;6118863;23;20188;-89
2022/08/12 06:16:35;;;;;;;4.60;2.28;;;;;;;;;;6118927;23;20169;-91
2022/08/12 06:19:40;;;;;;;6.15;2.60;;;;;;;;;;6119804;23;20194;-88
2022/08/12 06:22:47;;;;;;;7.82;2.50;;;;;;;;;;6121407;23;20290;-90
2022/08/12 06:25:53;;;;;;;3.67;2.22;;;;;;;;;;6122579;23;20161;-89
2022/08/12 06:29:00;;;;;;;6.10;2.33;;;;;;;;;;6132205;23;20181;-90
2022/08/12 06:32:06;;;;;;;6.75;3.33;;;;;;;;;;6122813;23;20169;-90
2022/08/12 06:35:11;;;;;;;3.90;2.53;;;;;;;;;;6123833;23;20165;-90
2022/08/12 06:38:18;;;;;;;3.10;2.20;;;;;;;;;;6122095;23;20168;-90
2022/08/12 06:44:49;;;;;;;3.35;1.98;;;;;;;;;;6120147;23;20189;-91
2022/08/12 06:47:55;;;;;;;6.60;2.15;;;;;;;;;;6121113;23;20200;-90
2022/08/12 06:51:02;;;;;;;5.78;1.77;;;;;;;;;;6121226;23;20156;-89
2022/08/12 06:54:09;;;;;;;3.35;2.28;;;;;;;;;;6121167;23;20173;-89
2022/08/12 06:57:17;;;;;;;5.80;1.75;;;;;;;;;;6122300;23;20172;-88
2022/08/12 07:00:24;;;;;;;4.47;1.95;;;;;;;;;;6118881;23;20174;-89
2022/08/12 07:03:31;;;;;;;7.80;2.05;;;;;;;;;;6120360;23;20176;-88
2022/08/12 07:06:43;;;;;;;9.30;3.58;;;;;;;;;;6120127;23;20157;-89
2022/08/12 07:09:53;;;;;;;4.32;1.58;;;;;;;;;;6120748;23;20168;-90
2022/08/12 07:13:00;;;;;;;2.15;1.40;;;;;;;;;;6122931;23;20241;-89
2022/08/12 07:16:06;;;;;;;3.10;1.38;;;;;;;;;;6127896;23;20157;-91
2022/08/12 07:19:12;;;;;;;2.78;1.20;;;;;;;;;;6121837;23;20240;-89
2022/08/12 07:22:17;;;;;;;3.25;0.95;;;;;;;;;;6121644;23;20249;-91
2022/08/12 07:25:33;;;;;;;3.63;1.40;;;;;;;;;;6121323;23;20252;-89
